PR223 RPLL-YPPH
Flight info
| Callsign | PR223 |
|---|---|
| Flight time | N/A |
| Altitude | 42000 |
| Route | BUCAL2R BUCAL M646 VJN M522 ELANG/N0474F370 M522 BLI G578 EGATU L514 OSOTO/N0471F390 L514 MUNNI/N0473F380 L514 AVPAL Q38 JULIM |
| Aircraft | A343/H-SDE2E3FGHIJ4J5M1RWXY/LB1D1 |
Departure
| Time | 2026-05-08 00:48 |
|---|---|
| Airport | Ninoy Aquino International Airport (RPLL) |
Arrival
| Time | N/A |
|---|---|
| Airport | Perth International Airport (YPPH) |
| Time | Latitude | Longitude | Altitude | Speed | Heading |
|---|---|---|---|---|---|
| 2026-05-08 00:32 | 14.50338 | 121.00425 | 44 ft | 0 kts | 22° |
| 2026-05-08 00:41 | 14.50324 | 121.00417 | 42 ft | 3 kts | 58° |
| 2026-05-08 00:41 | 14.50317 | 121.00397 | 40 ft | 3 kts | 104° |
| 2026-05-08 00:42 | 14.50321 | 121.00384 | 41 ft | 0 kts | 135° |
| 2026-05-08 00:44 | 14.50316 | 121.00385 | 38 ft | 3 kts | 154° |
| 2026-05-08 00:44 | 14.50299 | 121.00378 | 41 ft | 5 kts | 202° |
| 2026-05-08 00:45 | 14.50247 | 121.00356 | 43 ft | 11 kts | 202° |
| 2026-05-08 00:45 | 14.50153 | 121.00336 | 42 ft | 16 kts | 175° |
| 2026-05-08 00:45 | 14.50095 | 121.00297 | 40 ft | 10 kts | 240° |
| 2026-05-08 00:45 | 14.50053 | 121.00215 | 40 ft | 16 kts | 241° |
| 2026-05-08 00:46 | 14.49990 | 121.00100 | 40 ft | 21 kts | 240° |
| 2026-05-08 00:46 | 14.49907 | 120.99980 | 39 ft | 17 kts | 210° |
| 2026-05-08 00:46 | 14.49812 | 121.00011 | 39 ft | 14 kts | 121° |
| 2026-05-08 00:46 | 14.49833 | 121.00103 | 39 ft | 17 kts | 63° |
| 2026-05-08 00:47 | 14.49953 | 121.00321 | 39 ft | 58 kts | 59° |
| 2026-05-08 00:47 | 14.50235 | 121.00828 | 45 ft | 102 kts | 60° |
| 2026-05-08 00:47 | 14.50654 | 121.01584 | 48 ft | 139 kts | 60° |
| 2026-05-08 00:47 | 14.51164 | 121.02539 | 224 ft | 154 kts | 64° |
| 2026-05-08 00:48 | 14.51598 | 121.03494 | 673 ft | 151 kts | 66° |
| 2026-05-08 00:48 | 14.52103 | 121.04647 | 404 ft | 202 kts | 66° |
| 2026-05-08 00:48 | 14.52693 | 121.06056 | 682 ft | 223 kts | 68° |
| 2026-05-08 00:48 | 14.53305 | 121.07570 | 1136 ft | 234 kts | 68° |
| 2026-05-08 00:49 | 14.53942 | 121.09147 | 1690 ft | 242 kts | 68° |
| 2026-05-08 00:49 | 14.54596 | 121.10770 | 2284 ft | 247 kts | 68° |
| 2026-05-08 00:49 | 14.55261 | 121.12422 | 2931 ft | 250 kts | 68° |
| 2026-05-08 00:49 | 14.55924 | 121.14065 | 3525 ft | 246 kts | 68° |
| 2026-05-08 00:50 | 14.56590 | 121.15715 | 4156 ft | 252 kts | 69° |
| 2026-05-08 00:50 | 14.57263 | 121.17404 | 4680 ft | 262 kts | 70° |
| 2026-05-08 00:50 | 14.57622 | 121.19352 | 4437 ft | 300 kts | 93° |
| 2026-05-08 00:50 | 14.56979 | 121.21490 | 4515 ft | 325 kts | 122° |
| 2026-05-08 00:51 | 14.55293 | 121.23051 | 5348 ft | 325 kts | 151° |
| 2026-05-08 00:51 | 14.53255 | 121.23922 | 6311 ft | 317 kts | 157° |
| 2026-05-08 00:51 | 14.51225 | 121.24483 | 7228 ft | 288 kts | 168° |
| 2026-05-08 00:51 | 14.49302 | 121.24860 | 8176 ft | 276 kts | 166° |
| 2026-05-08 00:52 | 14.47436 | 121.25168 | 9176 ft | 265 kts | 172° |
| 2026-05-08 00:52 | 14.45620 | 121.25116 | 10079 ft | 258 kts | 186° |
| 2026-05-08 00:52 | 14.44021 | 121.24348 | 10692 ft | 260 kts | 220° |
| 2026-05-08 00:52 | 14.42714 | 121.22998 | 11063 ft | 272 kts | 227° |
| 2026-05-08 00:53 | 14.41423 | 121.21487 | 11324 ft | 288 kts | 228° |
| 2026-05-08 00:53 | 14.40081 | 121.19912 | 11584 ft | 302 kts | 228° |
| 2026-05-08 00:53 | 14.38649 | 121.18248 | 11816 ft | 318 kts | 227° |
| 2026-05-08 00:53 | 14.37134 | 121.16503 | 12046 ft | 333 kts | 227° |
| 2026-05-08 00:54 | 14.35545 | 121.14680 | 12263 ft | 348 kts | 226° |
| 2026-05-08 00:54 | 14.33915 | 121.12815 | 12524 ft | 360 kts | 227° |
| 2026-05-08 00:54 | 14.32200 | 121.10855 | 12780 ft | 373 kts | 227° |
| 2026-05-08 00:54 | 14.30431 | 121.08834 | 13042 ft | 383 kts | 227° |
| 2026-05-08 00:55 | 14.28587 | 121.06782 | 13250 ft | 395 kts | 224° |
| 2026-05-08 00:55 | 14.26470 | 121.04992 | 13523 ft | 403 kts | 214° |
| 2026-05-08 00:55 | 14.24144 | 121.03330 | 13884 ft | 408 kts | 213° |
| 2026-05-08 00:55 | 14.21786 | 121.01683 | 14346 ft | 409 kts | 213° |
| 2026-05-08 00:56 | 14.19434 | 121.00036 | 14850 ft | 409 kts | 213° |
| 2026-05-08 00:56 | 14.17061 | 120.98370 | 15156 ft | 415 kts | 213° |
| 2026-05-08 00:56 | 14.14662 | 120.96682 | 15538 ft | 418 kts | 213° |
| 2026-05-08 00:56 | 14.12246 | 120.94982 | 15958 ft | 420 kts | 213° |
| 2026-05-08 00:57 | 14.09865 | 120.93305 | 16453 ft | 420 kts | 213° |
| 2026-05-08 00:57 | 14.07446 | 120.91600 | 16933 ft | 421 kts | 213° |
| 2026-05-08 00:57 | 14.05016 | 120.89889 | 17302 ft | 425 kts | 213° |
| 2026-05-08 00:57 | 14.02561 | 120.88160 | 17715 ft | 428 kts | 213° |
| 2026-05-08 00:58 | 14.00082 | 120.86414 | 18140 ft | 430 kts | 213° |
| 2026-05-08 00:58 | 13.97629 | 120.84686 | 18515 ft | 432 kts | 213° |
| 2026-05-08 00:58 | 13.95131 | 120.82927 | 18907 ft | 434 kts | 213° |
| 2026-05-08 00:58 | 13.92624 | 120.81163 | 19253 ft | 437 kts | 213° |
| 2026-05-08 00:59 | 13.90126 | 120.79405 | 19562 ft | 441 kts | 213° |
| 2026-05-08 00:59 | 13.87579 | 120.77617 | 19978 ft | 442 kts | 212° |
| 2026-05-08 00:59 | 13.85028 | 120.75825 | 20384 ft | 443 kts | 213° |
| 2026-05-08 00:59 | 13.82475 | 120.74027 | 20727 ft | 446 kts | 213° |
| 2026-05-08 01:00 | 13.79901 | 120.72216 | 21028 ft | 450 kts | 213° |
| 2026-05-08 01:00 | 13.78333 | 120.71113 | 21201 ft | 452 kts | 213° |
| 2026-05-08 01:00 | 13.77052 | 120.70212 | 21379 ft | 453 kts | 213° |
| 2026-05-08 01:01 | 13.74448 | 120.68381 | 21791 ft | 453 kts | 214° |
| 2026-05-08 01:01 | 13.71876 | 120.66573 | 22211 ft | 453 kts | 213° |
| 2026-05-08 01:01 | 13.69228 | 120.64713 | 22496 ft | 457 kts | 213° |
| 2026-05-08 01:01 | 13.66625 | 120.62886 | 22781 ft | 460 kts | 213° |
| 2026-05-08 01:02 | 13.63969 | 120.61022 | 23149 ft | 461 kts | 214° |
| 2026-05-08 01:02 | 13.61314 | 120.59171 | 23502 ft | 462 kts | 213° |
| 2026-05-08 01:02 | 13.58527 | 120.57498 | 23770 ft | 465 kts | 207° |
| 2026-05-08 01:02 | 13.55636 | 120.55995 | 24020 ft | 467 kts | 205° |
| 2026-05-08 01:03 | 13.52690 | 120.54570 | 24322 ft | 467 kts | 204° |
| 2026-05-08 01:03 | 13.49724 | 120.53178 | 24619 ft | 469 kts | 204° |
| 2026-05-08 01:03 | 13.46741 | 120.51785 | 24905 ft | 470 kts | 204° |
| 2026-05-08 01:03 | 13.43756 | 120.50382 | 25161 ft | 473 kts | 204° |
| 2026-05-08 01:04 | 13.40766 | 120.48964 | 25422 ft | 475 kts | 204° |
| 2026-05-08 01:04 | 13.37763 | 120.47530 | 25704 ft | 476 kts | 204° |
| 2026-05-08 01:04 | 13.36591 | 120.46969 | 25814 ft | 477 kts | 204° |
| 2026-05-08 01:04 | 13.33583 | 120.45524 | 26121 ft | 477 kts | 205° |
| 2026-05-08 01:05 | 13.30569 | 120.44076 | 26370 ft | 480 kts | 205° |
| 2026-05-08 01:05 | 13.27577 | 120.42642 | 26620 ft | 482 kts | 205° |
| 2026-05-08 01:05 | 13.24539 | 120.41181 | 26888 ft | 483 kts | 205° |
| 2026-05-08 01:05 | 13.21491 | 120.39715 | 27163 ft | 484 kts | 205° |
| 2026-05-08 01:06 | 13.18430 | 120.38242 | 27396 ft | 487 kts | 205° |
| 2026-05-08 01:06 | 13.15349 | 120.36762 | 27641 ft | 489 kts | 205° |
| 2026-05-08 01:06 | 13.13307 | 120.35781 | 27796 ft | 490 kts | 205° |
| 2026-05-08 01:06 | 13.09160 | 120.33791 | 28151 ft | 492 kts | 205° |
| 2026-05-08 01:07 | 13.06054 | 120.32301 | 28418 ft | 493 kts | 205° |
| 2026-05-08 01:07 | 13.03987 | 120.31311 | 28592 ft | 494 kts | 205° |
| 2026-05-08 01:07 | 13.00881 | 120.29822 | 29021 ft | 490 kts | 205° |
| 2026-05-08 01:07 | 12.97809 | 120.28350 | 29599 ft | 484 kts | 205° |
| 2026-05-08 01:08 | 12.94779 | 120.26899 | 30144 ft | 478 kts | 205° |
| 2026-05-08 01:08 | 12.91780 | 120.25463 | 30638 ft | 471 kts | 205° |
| 2026-05-08 01:08 | 12.88823 | 120.24047 | 31128 ft | 465 kts | 205° |
| 2026-05-08 01:08 | 12.85966 | 120.22680 | 31783 ft | 453 kts | 205° |
| 2026-05-08 01:09 | 12.83158 | 120.21336 | 32589 ft | 437 kts | 206° |
| 2026-05-08 01:09 | 12.80462 | 120.20048 | 33526 ft | 418 kts | 206° |
| 2026-05-08 01:09 | 12.77859 | 120.18803 | 34050 ft | 409 kts | 206° |
| 2026-05-08 01:09 | 12.75294 | 120.17577 | 34336 ft | 404 kts | 206° |
| 2026-05-08 01:10 | 12.72747 | 120.16358 | 34525 ft | 402 kts | 206° |
| 2026-05-08 01:10 | 12.70218 | 120.15148 | 34680 ft | 401 kts | 206° |
| 2026-05-08 01:10 | 12.67684 | 120.13936 | 34799 ft | 401 kts | 206° |
| 2026-05-08 01:10 | 12.65193 | 120.12745 | 34952 ft | 399 kts | 206° |
| 2026-05-08 01:11 | 12.62672 | 120.11540 | 35008 ft | 401 kts | 206° |
| 2026-05-08 01:11 | 12.57579 | 120.09107 | 35067 ft | 405 kts | 206° |
| 2026-05-08 01:12 | 12.52449 | 120.06658 | 35151 ft | 409 kts | 206° |
| 2026-05-08 01:12 | 12.47265 | 120.04186 | 35317 ft | 410 kts | 206° |
| 2026-05-08 01:12 | 12.44692 | 120.02959 | 35475 ft | 408 kts | 206° |
| 2026-05-08 01:13 | 12.42154 | 120.01749 | 35597 ft | 407 kts | 206° |
| 2026-05-08 01:13 | 12.37031 | 119.99265 | 35768 ft | 406 kts | 211° |
| 2026-05-08 01:13 | 12.34823 | 119.97502 | 35850 ft | 402 kts | 230° |
| 2026-05-08 01:14 | 12.33287 | 119.95131 | 35861 ft | 401 kts | 249° |
| 2026-05-08 01:14 | 12.32578 | 119.92388 | 35872 ft | 401 kts | 266° |
| 2026-05-08 01:14 | 12.32768 | 119.89553 | 35874 ft | 402 kts | 285° |
| 2026-05-08 01:14 | 12.33827 | 119.86909 | 35878 ft | 404 kts | 301° |
| 2026-05-08 01:15 | 12.35270 | 119.84434 | 35870 ft | 406 kts | 295° |
| 2026-05-08 01:15 | 12.36145 | 119.81702 | 35873 ft | 406 kts | 277° |
| 2026-05-08 01:15 | 12.36126 | 119.78823 | 35875 ft | 407 kts | 258° |
| 2026-05-08 01:16 | 12.34169 | 119.73377 | 35875 ft | 412 kts | 246° |
| 2026-05-08 01:16 | 12.31790 | 119.68054 | 35877 ft | 417 kts | 246° |
| 2026-05-08 01:17 | 12.29209 | 119.62688 | 35878 ft | 423 kts | 240° |
| 2026-05-08 01:17 | 12.26071 | 119.57577 | 36107 ft | 422 kts | 237° |
| 2026-05-08 01:17 | 12.24261 | 119.55230 | 36333 ft | 419 kts | 225° |
| 2026-05-08 01:18 | 12.22073 | 119.53294 | 36539 ft | 416 kts | 218° |
| 2026-05-08 01:18 | 12.19711 | 119.51582 | 36684 ft | 415 kts | 213° |
| 2026-05-08 01:18 | 12.17206 | 119.50114 | 36778 ft | 415 kts | 207° |
| 2026-05-08 01:19 | 12.11805 | 119.48018 | 36882 ft | 417 kts | 197° |
| 2026-05-08 01:19 | 12.06187 | 119.46515 | 37034 ft | 417 kts | 195° |
| 2026-05-08 01:20 | 12.00521 | 119.45140 | 37100 ft | 420 kts | 194° |
| 2026-05-08 01:20 | 11.94824 | 119.43773 | 37158 ft | 422 kts | 194° |
| 2026-05-08 01:21 | 11.89131 | 119.42394 | 37228 ft | 424 kts | 194° |
| 2026-05-08 01:21 | 11.83375 | 119.40991 | 37292 ft | 426 kts | 194° |
| 2026-05-08 01:22 | 11.77585 | 119.39579 | 37394 ft | 427 kts | 195° |
| 2026-05-08 01:22 | 11.71793 | 119.38166 | 37485 ft | 429 kts | 195° |
| 2026-05-08 01:23 | 11.65968 | 119.36746 | 37527 ft | 431 kts | 195° |
| 2026-05-08 01:23 | 11.60149 | 119.35329 | 37593 ft | 434 kts | 195° |
| 2026-05-08 01:24 | 11.54257 | 119.33895 | 37669 ft | 436 kts | 194° |
| 2026-05-08 01:24 | 11.48339 | 119.32455 | 37712 ft | 438 kts | 195° |
| 2026-05-08 01:25 | 11.42379 | 119.31004 | 37760 ft | 441 kts | 195° |
| 2026-05-08 01:25 | 11.36429 | 119.29558 | 37818 ft | 443 kts | 195° |
| 2026-05-08 01:26 | 11.30407 | 119.28094 | 37878 ft | 445 kts | 195° |
| 2026-05-08 01:26 | 11.24356 | 119.26624 | 37945 ft | 447 kts | 195° |
| 2026-05-08 01:27 | 11.18280 | 119.25149 | 38009 ft | 450 kts | 195° |
| 2026-05-08 01:27 | 11.12181 | 119.23669 | 38069 ft | 452 kts | 195° |
| 2026-05-08 01:28 | 11.06085 | 119.22190 | 38142 ft | 454 kts | 195° |
| 2026-05-08 01:28 | 10.99929 | 119.20697 | 38208 ft | 456 kts | 195° |
| 2026-05-08 01:29 | 10.93734 | 119.19196 | 38251 ft | 458 kts | 195° |
| 2026-05-08 01:29 | 10.87514 | 119.17689 | 38321 ft | 460 kts | 195° |
| 2026-05-08 01:30 | 10.81271 | 119.16177 | 38308 ft | 463 kts | 195° |
| 2026-05-08 01:30 | 10.74977 | 119.14653 | 38331 ft | 466 kts | 195° |
| 2026-05-08 01:31 | 10.68661 | 119.13125 | 38446 ft | 467 kts | 195° |
| 2026-05-08 01:31 | 10.62338 | 119.11596 | 38554 ft | 467 kts | 195° |
| 2026-05-08 01:32 | 10.56008 | 119.10066 | 38632 ft | 468 kts | 195° |
| 2026-05-08 01:32 | 10.52889 | 119.09313 | 38806 ft | 464 kts | 195° |
| 2026-05-08 01:32 | 10.49746 | 119.08554 | 38896 ft | 464 kts | 195° |
| 2026-05-08 01:33 | 10.43428 | 119.07025 | 38814 ft | 469 kts | 195° |
| 2026-05-08 01:33 | 10.40251 | 119.06258 | 38922 ft | 467 kts | 195° |
| 2026-05-08 01:33 | 10.37089 | 119.05490 | 39008 ft | 466 kts | 196° |
| 2026-05-08 01:34 | 10.31054 | 119.03239 | 39036 ft | 466 kts | 204° |
| 2026-05-08 01:34 | 10.25114 | 119.00562 | 39110 ft | 466 kts | 206° |
| 2026-05-08 01:34 | 10.22177 | 118.99200 | 39251 ft | 463 kts | 206° |
| 2026-05-08 01:35 | 10.19233 | 118.97830 | 39214 ft | 466 kts | 206° |
| 2026-05-08 01:35 | 10.13317 | 118.95091 | 39227 ft | 468 kts | 205° |
| 2026-05-08 01:36 | 10.07363 | 118.92351 | 39208 ft | 471 kts | 205° |
| 2026-05-08 01:36 | 10.01388 | 118.89610 | 39314 ft | 470 kts | 205° |
| 2026-05-08 01:37 | 9.95423 | 118.86876 | 39405 ft | 471 kts | 205° |
| 2026-05-08 01:37 | 9.89478 | 118.84149 | 39441 ft | 472 kts | 205° |
| 2026-05-08 01:38 | 9.83504 | 118.81411 | 39577 ft | 471 kts | 205° |
| 2026-05-08 01:38 | 9.77508 | 118.78664 | 39621 ft | 473 kts | 205° |
| 2026-05-08 01:39 | 9.71794 | 118.75415 | 39710 ft | 471 kts | 214° |
| 2026-05-08 01:39 | 9.66394 | 118.71593 | 39739 ft | 472 kts | 216° |
| 2026-05-08 01:40 | 9.61069 | 118.67688 | 39777 ft | 475 kts | 215° |
| 2026-05-08 01:40 | 9.58376 | 118.65710 | 39604 ft | 479 kts | 216° |
| 2026-05-08 01:40 | 9.55725 | 118.63770 | 39744 ft | 474 kts | 216° |
| 2026-05-08 01:41 | 9.50371 | 118.59866 | 39699 ft | 476 kts | 216° |
| 2026-05-08 01:41 | 9.45000 | 118.55963 | 39870 ft | 472 kts | 216° |
| 2026-05-08 01:42 | 9.39635 | 118.52066 | 39892 ft | 475 kts | 216° |
| 2026-05-08 01:42 | 9.34275 | 118.48174 | 39890 ft | 475 kts | 216° |
| 2026-05-08 01:43 | 9.28890 | 118.44265 | 39889 ft | 476 kts | 215° |
| 2026-05-08 01:43 | 9.23500 | 118.40353 | 39895 ft | 479 kts | 215° |
| 2026-05-08 01:44 | 9.18101 | 118.36437 | 39884 ft | 480 kts | 216° |
| 2026-05-08 01:44 | 9.12659 | 118.32491 | 39890 ft | 481 kts | 216° |
| 2026-05-08 01:45 | 9.07218 | 118.28547 | 39881 ft | 481 kts | 216° |
| 2026-05-08 01:45 | 9.01793 | 118.24636 | 39887 ft | 480 kts | 216° |
| 2026-05-08 01:46 | 8.96309 | 118.20685 | 39882 ft | 481 kts | 215° |
| 2026-05-08 01:46 | 8.90873 | 118.16768 | 39884 ft | 483 kts | 215° |
| 2026-05-08 01:47 | 8.85383 | 118.12815 | 39884 ft | 485 kts | 215° |
| 2026-05-08 01:47 | 8.79872 | 118.08848 | 39881 ft | 486 kts | 215° |
| 2026-05-08 01:48 | 8.71604 | 118.02900 | 39881 ft | 488 kts | 216° |
| 2026-05-08 01:48 | 8.66071 | 117.98920 | 39882 ft | 488 kts | 215° |
| 2026-05-08 01:49 | 8.60533 | 117.94939 | 39884 ft | 489 kts | 215° |
| 2026-05-08 01:49 | 8.54972 | 117.90942 | 39878 ft | 489 kts | 215° |
| 2026-05-08 01:50 | 8.49423 | 117.86957 | 39878 ft | 489 kts | 215° |
| 2026-05-08 01:50 | 8.43867 | 117.82967 | 39874 ft | 489 kts | 215° |
| 2026-05-08 01:51 | 8.38342 | 117.79001 | 39873 ft | 489 kts | 215° |
| 2026-05-08 01:51 | 8.32784 | 117.75012 | 39875 ft | 491 kts | 215° |
| 2026-05-08 01:52 | 8.28112 | 117.71661 | 39877 ft | 492 kts | 215° |
| 2026-05-08 01:52 | 8.22558 | 117.67678 | 39879 ft | 494 kts | 215° |
| 2026-05-08 01:53 | 8.16951 | 117.63659 | 39879 ft | 494 kts | 215° |
| 2026-05-08 01:53 | 8.11346 | 117.59642 | 39878 ft | 494 kts | 215° |
| 2026-05-08 01:54 | 8.05724 | 117.55615 | 39877 ft | 494 kts | 216° |
| 2026-05-08 01:54 | 8.00114 | 117.51598 | 39879 ft | 495 kts | 216° |
| 2026-05-08 01:55 | 7.94480 | 117.47564 | 39878 ft | 496 kts | 216° |
| 2026-05-08 01:55 | 7.88879 | 117.43556 | 39877 ft | 496 kts | 216° |
| 2026-05-08 01:56 | 7.83249 | 117.39528 | 39878 ft | 496 kts | 216° |
| 2026-05-08 01:56 | 7.77614 | 117.35499 | 39877 ft | 496 kts | 216° |
| 2026-05-08 01:57 | 7.71974 | 117.31467 | 39878 ft | 496 kts | 216° |
| 2026-05-08 01:57 | 7.66338 | 117.27449 | 39878 ft | 496 kts | 215° |
| 2026-05-08 01:58 | 7.60726 | 117.23482 | 39875 ft | 496 kts | 215° |
| 2026-05-08 01:58 | 7.55066 | 117.19488 | 39882 ft | 496 kts | 215° |
| 2026-05-08 01:59 | 7.49411 | 117.15496 | 39882 ft | 496 kts | 215° |
| 2026-05-08 01:59 | 7.43768 | 117.11511 | 39883 ft | 495 kts | 216° |
| 2026-05-08 02:00 | 7.38132 | 117.07532 | 39884 ft | 494 kts | 215° |
| 2026-05-08 02:00 | 7.32538 | 117.03584 | 39884 ft | 494 kts | 215° |
| 2026-05-08 02:01 | 7.26905 | 116.99609 | 39881 ft | 494 kts | 215° |
| 2026-05-08 02:01 | 7.21280 | 116.95641 | 39878 ft | 494 kts | 215° |
| 2026-05-08 02:02 | 7.15646 | 116.91668 | 39878 ft | 494 kts | 215° |
| 2026-05-08 02:02 | 7.10019 | 116.87701 | 39878 ft | 494 kts | 215° |
| 2026-05-08 02:03 | 7.04387 | 116.83732 | 39878 ft | 494 kts | 216° |
| 2026-05-08 02:03 | 6.98747 | 116.79759 | 39857 ft | 494 kts | 216° |
| 2026-05-08 02:04 | 6.93110 | 116.75789 | 39857 ft | 494 kts | 216° |
| 2026-05-08 02:04 | 6.87494 | 116.71835 | 39859 ft | 494 kts | 216° |
| 2026-05-08 02:05 | 6.81852 | 116.67863 | 39864 ft | 494 kts | 216° |
| 2026-05-08 02:05 | 6.76207 | 116.63891 | 39869 ft | 494 kts | 216° |
| 2026-05-08 02:06 | 6.70600 | 116.59947 | 39875 ft | 494 kts | 216° |
| 2026-05-08 02:06 | 6.64962 | 116.55981 | 39883 ft | 494 kts | 216° |
| 2026-05-08 02:07 | 6.59319 | 116.52015 | 39880 ft | 493 kts | 216° |
| 2026-05-08 02:07 | 6.53696 | 116.48071 | 39876 ft | 492 kts | 215° |
| 2026-05-08 02:08 | 6.48106 | 116.44150 | 39881 ft | 492 kts | 215° |
| 2026-05-08 02:08 | 6.42480 | 116.40207 | 39881 ft | 492 kts | 215° |
| 2026-05-08 02:09 | 6.36873 | 116.36277 | 39886 ft | 491 kts | 215° |
| 2026-05-08 02:09 | 6.31252 | 116.32335 | 39885 ft | 491 kts | 215° |
| 2026-05-08 02:10 | 6.25677 | 116.28427 | 39881 ft | 491 kts | 215° |
| 2026-05-08 02:10 | 6.20069 | 116.24499 | 39883 ft | 491 kts | 215° |
| 2026-05-08 02:11 | 6.14463 | 116.20574 | 39872 ft | 490 kts | 215° |
| 2026-05-08 02:11 | 6.08869 | 116.16658 | 39864 ft | 489 kts | 215° |
| 2026-05-08 02:12 | 6.03281 | 116.12747 | 39860 ft | 489 kts | 215° |
| 2026-05-08 02:12 | 5.97717 | 116.08855 | 39856 ft | 489 kts | 215° |
| 2026-05-08 02:13 | 5.92036 | 116.05100 | 39857 ft | 488 kts | 208° |
| 2026-05-08 02:13 | 5.85653 | 116.02859 | 39860 ft | 488 kts | 191° |
| 2026-05-08 02:14 | 5.78950 | 116.01758 | 39856 ft | 489 kts | 188° |
| 2026-05-08 02:14 | 5.72204 | 116.00855 | 39856 ft | 489 kts | 187° |
| 2026-05-08 02:15 | 5.65441 | 115.99952 | 39854 ft | 489 kts | 188° |
| 2026-05-08 02:15 | 5.58739 | 115.99027 | 39862 ft | 489 kts | 188° |
| 2026-05-08 02:16 | 5.51991 | 115.98082 | 39862 ft | 489 kts | 188° |
| 2026-05-08 02:16 | 5.45249 | 115.97135 | 39867 ft | 490 kts | 188° |
| 2026-05-08 02:17 | 5.38536 | 115.96193 | 39863 ft | 488 kts | 188° |
| 2026-05-08 02:17 | 5.31792 | 115.95248 | 39871 ft | 489 kts | 188° |
| 2026-05-08 02:18 | 5.25052 | 115.94304 | 39865 ft | 488 kts | 188° |
| 2026-05-08 02:18 | 5.18318 | 115.93396 | 39879 ft | 488 kts | 187° |
| 2026-05-08 02:19 | 5.11579 | 115.92537 | 39876 ft | 488 kts | 187° |
| 2026-05-08 02:19 | 5.04849 | 115.91681 | 39887 ft | 487 kts | 187° |
| 2026-05-08 02:20 | 4.98169 | 115.90825 | 39889 ft | 486 kts | 187° |
| 2026-05-08 02:20 | 4.91452 | 115.89960 | 39897 ft | 487 kts | 187° |
| 2026-05-08 02:21 | 4.84733 | 115.89090 | 39898 ft | 487 kts | 188° |
| 2026-05-08 02:21 | 4.78009 | 115.88166 | 39920 ft | 487 kts | 188° |
| 2026-05-08 02:22 | 4.71352 | 115.87243 | 39917 ft | 486 kts | 188° |
| 2026-05-08 02:22 | 4.64658 | 115.86323 | 39933 ft | 485 kts | 188° |
| 2026-05-08 02:23 | 4.57966 | 115.85410 | 39930 ft | 485 kts | 188° |
| 2026-05-08 02:23 | 4.51258 | 115.84495 | 39939 ft | 485 kts | 188° |
| 2026-05-08 02:24 | 4.44559 | 115.83582 | 39939 ft | 485 kts | 187° |
| 2026-05-08 02:24 | 4.37867 | 115.82670 | 39944 ft | 485 kts | 187° |
| 2026-05-08 02:25 | 4.31221 | 115.81774 | 39944 ft | 484 kts | 187° |
| 2026-05-08 02:25 | 4.24525 | 115.80868 | 39947 ft | 484 kts | 187° |
| 2026-05-08 02:26 | 4.17844 | 115.79948 | 39947 ft | 484 kts | 188° |
| 2026-05-08 02:26 | 4.11162 | 115.79032 | 39946 ft | 485 kts | 187° |
| 2026-05-08 02:27 | 4.04484 | 115.78051 | 39945 ft | 485 kts | 190° |
| 2026-05-08 02:27 | 3.97887 | 115.76758 | 39944 ft | 486 kts | 191° |
| 2026-05-08 02:28 | 3.91262 | 115.75413 | 39938 ft | 484 kts | 191° |
| 2026-05-08 02:28 | 3.84646 | 115.74118 | 39763 ft | 484 kts | 191° |
| 2026-05-08 02:29 | 3.78035 | 115.72853 | 39688 ft | 482 kts | 191° |
| 2026-05-08 02:29 | 3.71443 | 115.71600 | 39601 ft | 481 kts | 191° |
| 2026-05-08 02:30 | 3.64897 | 115.70355 | 39559 ft | 481 kts | 191° |
| 2026-05-08 02:30 | 3.58318 | 115.69102 | 39505 ft | 481 kts | 191° |
| 2026-05-08 02:31 | 3.51754 | 115.67851 | 39486 ft | 480 kts | 191° |
| 2026-05-08 02:31 | 3.45174 | 115.66597 | 39465 ft | 480 kts | 191° |
| 2026-05-08 02:32 | 3.38642 | 115.65357 | 39427 ft | 480 kts | 191° |
| 2026-05-08 02:32 | 3.32064 | 115.64104 | 39400 ft | 480 kts | 191° |
| 2026-05-08 02:33 | 3.25494 | 115.62850 | 39354 ft | 481 kts | 191° |
| 2026-05-08 02:33 | 3.18923 | 115.61598 | 39346 ft | 480 kts | 191° |
| 2026-05-08 02:34 | 3.12352 | 115.60347 | 39334 ft | 480 kts | 191° |
| 2026-05-08 02:34 | 3.05823 | 115.59104 | 39291 ft | 481 kts | 191° |
| 2026-05-08 02:35 | 2.99240 | 115.57851 | 39145 ft | 481 kts | 191° |
| 2026-05-08 02:35 | 2.92674 | 115.56602 | 39113 ft | 479 kts | 191° |
| 2026-05-08 02:36 | 2.86111 | 115.55353 | 38993 ft | 479 kts | 191° |
| 2026-05-08 02:36 | 2.79570 | 115.54109 | 38963 ft | 478 kts | 191° |
| 2026-05-08 02:37 | 2.73024 | 115.52863 | 38921 ft | 478 kts | 191° |
| 2026-05-08 02:37 | 2.66488 | 115.51620 | 38906 ft | 478 kts | 191° |
| 2026-05-08 02:38 | 2.59993 | 115.50385 | 38901 ft | 477 kts | 191° |
| 2026-05-08 02:38 | 2.53450 | 115.49140 | 38860 ft | 478 kts | 191° |
| 2026-05-08 02:39 | 2.46908 | 115.47896 | 38866 ft | 477 kts | 191° |
| 2026-05-08 02:39 | 2.40373 | 115.46654 | 38820 ft | 477 kts | 191° |
| 2026-05-08 02:40 | 2.33896 | 115.45422 | 38840 ft | 476 kts | 191° |
| 2026-05-08 02:40 | 2.28474 | 115.44392 | 38807 ft | 476 kts | 191° |
| 2026-05-08 02:41 | 2.21961 | 115.43154 | 38762 ft | 476 kts | 191° |
| 2026-05-08 02:41 | 2.15450 | 115.41916 | 38673 ft | 476 kts | 191° |
| 2026-05-08 02:42 | 2.08933 | 115.40677 | 38513 ft | 476 kts | 191° |
| 2026-05-08 02:42 | 2.05677 | 115.40058 | 38344 ft | 476 kts | 190° |
| 2026-05-08 02:42 | 2.02413 | 115.39438 | 38211 ft | 475 kts | 190° |
| 2026-05-08 02:43 | 1.99173 | 115.38822 | 37973 ft | 474 kts | 190° |
| 2026-05-08 02:43 | 1.95938 | 115.38208 | 37939 ft | 474 kts | 190° |
| 2026-05-08 02:43 | 1.89438 | 115.36973 | 37939 ft | 475 kts | 190° |
| 2026-05-08 02:44 | 1.82982 | 115.35746 | 37941 ft | 475 kts | 190° |
| 2026-05-08 02:44 | 1.76471 | 115.34509 | 37941 ft | 475 kts | 190° |
| 2026-05-08 02:45 | 1.69969 | 115.33274 | 37939 ft | 475 kts | 190° |
| 2026-05-08 02:45 | 1.63462 | 115.32038 | 37940 ft | 477 kts | 190° |
| 2026-05-08 02:46 | 1.56976 | 115.30807 | 37942 ft | 478 kts | 190° |
| 2026-05-08 02:46 | 1.50442 | 115.29565 | 37942 ft | 478 kts | 190° |
| 2026-05-08 02:47 | 1.43903 | 115.28323 | 37939 ft | 478 kts | 190° |
| 2026-05-08 02:47 | 1.37360 | 115.27081 | 37936 ft | 478 kts | 190° |
| 2026-05-08 02:48 | 1.30878 | 115.25850 | 37935 ft | 477 kts | 190° |
| 2026-05-08 02:48 | 1.24359 | 115.24612 | 37936 ft | 477 kts | 190° |
| 2026-05-08 02:49 | 1.17837 | 115.23374 | 37933 ft | 477 kts | 190° |
| 2026-05-08 02:49 | 1.11310 | 115.22135 | 37933 ft | 476 kts | 190° |
| 2026-05-08 02:50 | 1.04779 | 115.20895 | 37933 ft | 477 kts | 190° |
| 2026-05-08 02:50 | 0.98296 | 115.19664 | 37933 ft | 477 kts | 190° |
| 2026-05-08 02:51 | 0.91776 | 115.18426 | 37928 ft | 477 kts | 190° |
| 2026-05-08 02:51 | 0.85247 | 115.17187 | 37927 ft | 477 kts | 190° |
| 2026-05-08 02:52 | 0.78721 | 115.15948 | 37922 ft | 477 kts | 190° |
| 2026-05-08 02:52 | 0.72237 | 115.14717 | 37923 ft | 477 kts | 190° |
| 2026-05-08 02:53 | 0.65707 | 115.13478 | 37916 ft | 477 kts | 189° |
| 2026-05-08 02:53 | 0.59192 | 115.12242 | 37917 ft | 476 kts | 189° |
| 2026-05-08 02:54 | 0.52667 | 115.11003 | 37911 ft | 476 kts | 189° |
| 2026-05-08 02:54 | 0.46153 | 115.09766 | 37913 ft | 476 kts | 189° |
| 2026-05-08 02:55 | 0.36425 | 115.07920 | 37907 ft | 477 kts | 189° |
| 2026-05-08 02:56 | 0.29897 | 115.06681 | 37905 ft | 476 kts | 189° |
| 2026-05-08 02:56 | 0.23385 | 115.05445 | 37900 ft | 477 kts | 189° |
| 2026-05-08 02:57 | 0.16869 | 115.04208 | 37906 ft | 477 kts | 189° |
| 2026-05-08 02:57 | 0.10346 | 115.02970 | 37903 ft | 476 kts | 189° |
| 2026-05-08 02:58 | 0.03826 | 115.01733 | 37897 ft | 476 kts | 189° |
| 2026-05-08 02:58 | -0.02689 | 115.00497 | 37894 ft | 476 kts | 190° |
| 2026-05-08 02:59 | -0.09163 | 114.99268 | 37901 ft | 476 kts | 190° |
| 2026-05-08 02:59 | -0.15680 | 114.98032 | 37894 ft | 477 kts | 190° |
| 2026-05-08 03:00 | -0.22197 | 114.96800 | 37896 ft | 477 kts | 190° |
| 2026-05-08 03:00 | -0.28715 | 114.95560 | 37898 ft | 476 kts | 190° |
| 2026-05-08 03:01 | -0.35240 | 114.94320 | 37897 ft | 476 kts | 189° |
| 2026-05-08 03:01 | -0.41764 | 114.93081 | 37894 ft | 477 kts | 190° |
| 2026-05-08 03:02 | -0.48250 | 114.91850 | 37889 ft | 477 kts | 189° |
| 2026-05-08 03:02 | -0.54776 | 114.90611 | 37890 ft | 477 kts | 189° |
| 2026-05-08 03:03 | -0.61310 | 114.89371 | 37890 ft | 477 kts | 189° |
| 2026-05-08 03:03 | -0.67842 | 114.88131 | 37889 ft | 477 kts | 189° |
| 2026-05-08 03:04 | -0.74339 | 114.86898 | 37884 ft | 478 kts | 189° |
| 2026-05-08 03:04 | -0.80885 | 114.85656 | 37885 ft | 479 kts | 189° |
| 2026-05-08 03:05 | -0.87440 | 114.84411 | 37882 ft | 479 kts | 189° |
| 2026-05-08 03:05 | -0.94039 | 114.83564 | 37884 ft | 477 kts | 179° |
| 2026-05-08 03:06 | -1.00669 | 114.83623 | 37882 ft | 477 kts | 177° |
| 2026-05-08 03:06 | -1.07257 | 114.83837 | 37882 ft | 477 kts | 176° |
| 2026-05-08 03:07 | -1.13911 | 114.84073 | 37878 ft | 478 kts | 176° |
| 2026-05-08 03:07 | -1.20558 | 114.84293 | 37878 ft | 478 kts | 177° |
| 2026-05-08 03:08 | -1.27209 | 114.84504 | 37879 ft | 478 kts | 177° |
| 2026-05-08 03:08 | -1.33850 | 114.84711 | 37878 ft | 478 kts | 177° |
| 2026-05-08 03:09 | -1.40510 | 114.84920 | 37874 ft | 478 kts | 177° |
| 2026-05-08 03:09 | -1.47125 | 114.85128 | 37876 ft | 479 kts | 177° |
| 2026-05-08 03:10 | -1.53793 | 114.85337 | 37870 ft | 479 kts | 177° |
| 2026-05-08 03:10 | -1.60462 | 114.85547 | 37871 ft | 479 kts | 177° |
| 2026-05-08 03:11 | -1.67128 | 114.85756 | 37869 ft | 479 kts | 177° |
| 2026-05-08 03:11 | -1.73746 | 114.85964 | 37864 ft | 479 kts | 178° |
| 2026-05-08 03:12 | -1.80423 | 114.86174 | 37865 ft | 480 kts | 178° |
| 2026-05-08 03:12 | -1.87120 | 114.86384 | 37865 ft | 481 kts | 178° |
| 2026-05-08 03:13 | -1.93821 | 114.86595 | 37862 ft | 481 kts | 178° |
| 2026-05-08 03:13 | -2.00486 | 114.86805 | 37865 ft | 481 kts | 178° |
| 2026-05-08 03:14 | -2.07170 | 114.87015 | 37865 ft | 481 kts | 178° |
| 2026-05-08 03:14 | -2.13850 | 114.87225 | 37859 ft | 478 kts | 177° |
| 2026-05-08 03:15 | -2.20481 | 114.87433 | 37857 ft | 475 kts | 177° |
| 2026-05-08 03:15 | -2.27093 | 114.87642 | 37856 ft | 475 kts | 177° |
| 2026-05-08 03:16 | -2.33701 | 114.87849 | 37858 ft | 475 kts | 177° |
| 2026-05-08 03:16 | -2.40319 | 114.88058 | 37856 ft | 475 kts | 177° |
| 2026-05-08 03:17 | -2.46884 | 114.88265 | 37853 ft | 474 kts | 177° |
| 2026-05-08 03:17 | -2.53481 | 114.88472 | 37849 ft | 473 kts | 177° |
| 2026-05-08 03:18 | -2.60064 | 114.88679 | 37848 ft | 473 kts | 177° |
| 2026-05-08 03:18 | -2.66646 | 114.88886 | 37849 ft | 473 kts | 177° |
| 2026-05-08 03:19 | -2.73230 | 114.89094 | 37849 ft | 473 kts | 177° |
| 2026-05-08 03:19 | -2.79774 | 114.89300 | 37844 ft | 473 kts | 176° |
| 2026-05-08 03:20 | -2.86357 | 114.89507 | 37842 ft | 474 kts | 177° |
| 2026-05-08 03:20 | -2.92948 | 114.89715 | 37844 ft | 474 kts | 176° |
| 2026-05-08 03:21 | -2.99543 | 114.89923 | 37842 ft | 474 kts | 177° |
| 2026-05-08 03:21 | -3.06133 | 114.90130 | 37840 ft | 474 kts | 176° |
| 2026-05-08 03:22 | -3.12730 | 114.90338 | 37839 ft | 474 kts | 177° |
| 2026-05-08 03:22 | -3.19287 | 114.90544 | 37835 ft | 474 kts | 177° |
| 2026-05-08 03:23 | -3.25882 | 114.90752 | 37835 ft | 474 kts | 177° |
| 2026-05-08 03:23 | -3.32474 | 114.90960 | 37832 ft | 474 kts | 177° |
| 2026-05-08 03:24 | -3.39077 | 114.91168 | 37835 ft | 474 kts | 176° |
| 2026-05-08 03:24 | -3.45669 | 114.91376 | 37833 ft | 474 kts | 177° |
| 2026-05-08 03:25 | -3.52221 | 114.91582 | 37843 ft | 474 kts | 177° |
| 2026-05-08 03:25 | -3.58823 | 114.91791 | 37841 ft | 474 kts | 177° |
| 2026-05-08 03:26 | -3.65419 | 114.91999 | 37851 ft | 474 kts | 177° |
| 2026-05-08 03:26 | -3.72005 | 114.92206 | 37850 ft | 474 kts | 177° |
| 2026-05-08 03:27 | -3.78602 | 114.92414 | 37863 ft | 473 kts | 177° |
| 2026-05-08 03:27 | -3.85163 | 114.92622 | 37863 ft | 475 kts | 178° |
| 2026-05-08 03:28 | -3.91774 | 114.92831 | 37868 ft | 475 kts | 177° |
| 2026-05-08 03:28 | -3.97281 | 114.93004 | 37868 ft | 476 kts | 178° |
| 2026-05-08 03:29 | -4.03899 | 114.93213 | 37869 ft | 476 kts | 178° |
| 2026-05-08 03:29 | -4.10513 | 114.93422 | 37871 ft | 476 kts | 177° |
| 2026-05-08 03:30 | -4.20438 | 114.93735 | 37873 ft | 476 kts | 179° |